Terminal Aerodrome Forecast
Issued by NWS Newport/Morehead City, NC

Home | Current Version | Previous Version | Text Only | Print | Product List | Glossary On
Versions: 1 2 3 4 5 6 7 8 9 10 11 12 13 14 15 16 17
000
FTUS42 KMHX 240123 AAA
TAFEWN
TAF AMD
KEWN 240123Z 2401/2424 02002KT P6SM SCT100
      TEMPO 2401/2403 2SM BR
     FM240300 00000KT 3SM BR SCT005
     FM240800 00000KT 1SM BR OVC005
     FM241300 02006KT P6SM SCT050=

USA.gov is the U.S. government's official web portal to all federal, state and local government web resources and services.